createdAt,value
2023-05-15T00:00:58.720Z,0.00
2023-05-15T00:03:28.113Z,0.00
2023-05-15T00:05:56.891Z,0.00
2023-05-15T00:08:25.316Z,0.00
2023-05-15T00:11:01.721Z,0.00
2023-05-15T00:13:23.356Z,0.00
2023-05-15T00:15:51.737Z,0.00
2023-05-15T00:18:20.344Z,0.10
2023-05-15T00:20:48.832Z,0.00
2023-05-15T00:23:17.081Z,0.10
2023-05-15T00:25:45.653Z,0.00
2023-05-15T00:28:14.246Z,0.00
2023-05-15T00:30:42.762Z,0.00
2023-05-15T00:33:11.474Z,0.20
2023-05-15T00:35:39.768Z,0.00
2023-05-15T00:38:08.244Z,0.00
2023-05-15T00:40:37.472Z,0.00
2023-05-15T00:43:06.568Z,0.00
2023-05-15T00:45:35.556Z,0.00
2023-05-15T00:48:04.199Z,0.00
2023-05-15T00:50:35.225Z,0.40
2023-05-15T00:53:04.217Z,0.00
2023-05-15T00:55:33.290Z,0.00
2023-05-15T00:58:02.292Z,0.10
2023-05-15T01:00:33.167Z,0.00
2023-05-15T01:03:01.738Z,0.00
2023-05-15T01:05:30.143Z,0.00
2023-05-15T01:08:02.618Z,0.60
2023-05-15T01:10:30.942Z,0.10
2023-05-15T01:12:59.578Z,0.00
2023-05-15T01:15:27.809Z,0.00
2023-05-15T01:17:56.146Z,0.03
2023-05-15T01:20:25.185Z,0.10
2023-05-15T01:23:07.425Z,0.00
2023-05-15T01:25:40.392Z,0.00
2023-05-15T01:28:10.093Z,0.00
2023-05-15T01:30:39.881Z,0.40
2023-05-15T01:33:27.564Z,0.00
2023-05-15T01:36:09.492Z,0.00
2023-05-15T01:38:41.989Z,0.03
2023-05-15T01:41:11.769Z,0.10
2023-05-15T01:43:41.595Z,0.00
2023-05-15T01:46:10.833Z,0.00
2023-05-15T01:48:39.914Z,0.00
2023-05-15T01:51:08.860Z,0.00
2023-05-15T01:53:38.205Z,0.00
2023-05-15T01:56:09.034Z,0.00
2023-05-15T01:58:38.581Z,0.00
2023-05-15T02:01:06.870Z,0.00
2023-05-15T02:03:35.705Z,0.00
2023-05-15T02:06:07.218Z,0.13
2023-05-15T02:08:36.075Z,0.63
2023-05-15T02:11:04.848Z,0.00
2023-05-15T02:13:33.863Z,0.00
2023-05-15T02:16:02.503Z,0.00
2023-05-15T02:18:30.798Z,0.20
2023-05-15T02:21:01.226Z,0.00
2023-05-15T02:23:29.969Z,0.10
2023-05-15T02:25:59.972Z,0.03
2023-05-15T02:28:48.300Z,0.50
2023-05-15T02:31:24.596Z,0.10
2023-05-15T02:33:57.115Z,1.20
2023-05-15T02:36:26.825Z,0.30
2023-05-15T02:38:56.404Z,0.00
2023-05-15T02:41:24.726Z,0.00
2023-05-15T02:43:55.307Z,0.00
2023-05-15T02:46:24.902Z,0.00
2023-05-15T02:48:54.188Z,0.03
2023-05-15T02:51:22.485Z,0.37
2023-05-15T02:53:51.283Z,0.20
2023-05-15T02:56:19.506Z,0.00
2023-05-15T02:58:47.763Z,0.00
2023-05-15T03:01:16.482Z,0.10
2023-05-15T03:03:45.141Z,0.23
2023-05-15T03:06:13.715Z,0.00
2023-05-15T03:08:42.189Z,0.00
2023-05-15T03:11:10.499Z,0.10
2023-05-15T03:13:38.703Z,0.30
2023-05-15T03:16:07.167Z,1.30
2023-05-15T03:18:35.471Z,0.10
2023-05-15T03:21:04.162Z,0.20
2023-05-15T03:23:32.330Z,0.83
2023-05-15T03:26:00.989Z,0.30
2023-05-15T03:28:29.236Z,0.00
2023-05-15T03:30:57.487Z,0.07
2023-05-15T03:33:25.962Z,0.00
2023-05-15T03:35:54.509Z,0.00
2023-05-15T03:38:23.129Z,0.00
2023-05-15T03:40:53.968Z,0.00
2023-05-15T03:43:22.505Z,0.20
2023-05-15T03:45:51.041Z,0.70
2023-05-15T03:48:19.640Z,0.00
2023-05-15T03:50:48.214Z,1.40
2023-05-15T03:53:16.342Z,0.00
2023-05-15T03:55:44.769Z,0.00
2023-05-15T03:58:12.996Z,0.10
2023-05-15T04:00:41.273Z,0.30
2023-05-15T04:03:09.704Z,0.40
2023-05-15T04:05:38.436Z,0.00
2023-05-15T04:08:06.688Z,0.00
2023-05-15T04:10:34.983Z,0.10
2023-05-15T04:13:03.207Z,0.00
2023-05-15T04:15:31.448Z,0.00
2023-05-15T04:17:59.675Z,0.27
2023-05-15T04:20:27.989Z,0.83
2023-05-15T04:22:56.643Z,0.37
2023-05-15T04:25:25.617Z,0.00
2023-05-15T04:27:54.005Z,0.20
2023-05-15T04:30:22.733Z,0.50
2023-05-15T04:32:52.260Z,0.57
2023-05-15T04:35:20.491Z,0.53
2023-05-15T04:37:48.808Z,1.90
2023-05-15T04:40:17.438Z,1.90
2023-05-15T04:42:45.733Z,1.90
2023-05-15T04:45:14.769Z,0.40
2023-05-15T04:47:43.034Z,2.33
2023-05-15T04:50:11.669Z,1.93
2023-05-15T04:52:40.223Z,3.67
2023-05-15T04:55:08.892Z,1.17
2023-05-15T04:57:37.186Z,2.33
2023-05-15T05:00:07.859Z,1.23
2023-05-15T05:02:36.635Z,4.00
2023-05-15T05:05:06.066Z,1.10
2023-05-15T05:07:34.685Z,1.13
2023-05-15T05:10:04.161Z,2.98
2023-05-15T05:12:32.424Z,1.80
2023-05-15T05:15:01.004Z,3.03
2023-05-15T05:17:31.203Z,0.20
2023-05-15T05:19:59.416Z,2.40
2023-05-15T05:22:28.074Z,4.40
2023-05-15T05:24:56.312Z,0.00
2023-05-15T05:27:24.545Z,1.57
2023-05-15T05:29:54.270Z,6.47
2023-05-15T05:32:22.792Z,1.30
2023-05-15T05:34:51.368Z,0.00
2023-05-15T05:37:19.969Z,0.40
2023-05-15T05:39:48.184Z,0.30
2023-05-15T05:42:16.446Z,6.97
2023-05-15T05:44:44.676Z,3.30
2023-05-15T05:47:12.955Z,0.00
2023-05-15T05:49:41.673Z,0.10
2023-05-15T05:52:10.127Z,4.50
2023-05-15T05:54:38.732Z,6.43
2023-05-15T05:57:07.839Z,1.27
2023-05-15T05:59:37.053Z,0.00
2023-05-15T06:02:05.859Z,0.80
2023-05-15T06:04:34.437Z,2.10
2023-05-15T06:07:03.542Z,0.10
2023-05-15T06:09:31.794Z,0.00
2023-05-15T06:12:00.769Z,1.33
2023-05-15T06:14:29.094Z,0.70
2023-05-15T06:16:57.381Z,1.30
2023-05-15T06:19:25.659Z,4.77
2023-05-15T06:21:54.285Z,0.77
2023-05-15T06:24:22.512Z,0.93
2023-05-15T06:26:52.361Z,1.93
2023-05-15T06:29:20.770Z,1.07
2023-05-15T06:31:49.422Z,1.83
2023-05-15T06:34:17.912Z,2.47
2023-05-15T06:36:46.113Z,0.63
2023-05-15T06:39:14.697Z,0.93
2023-05-15T06:41:43.335Z,2.70
2023-05-15T06:44:11.921Z,3.97
2023-05-15T06:46:40.438Z,5.93
2023-05-15T06:49:08.744Z,5.03
2023-05-15T06:51:37.469Z,5.27
2023-05-15T06:54:06.125Z,2.43
2023-05-15T06:56:34.334Z,7.42
2023-05-15T06:59:02.634Z,2.37
2023-05-15T07:01:31.685Z,2.70
2023-05-15T07:04:00.247Z,2.47
2023-05-15T07:06:28.986Z,3.70
2023-05-15T07:08:57.457Z,2.17
2023-05-15T07:11:25.888Z,2.95
2023-05-15T07:13:54.151Z,4.10
2023-05-15T07:16:22.714Z,11.93
2023-05-15T07:18:51.735Z,5.62
2023-05-15T07:21:20.222Z,5.92
2023-05-15T07:23:48.792Z,12.18
2023-05-15T07:26:27.514Z,9.98
2023-05-15T07:28:47.436Z,2.77
2023-05-15T07:31:15.697Z,2.87
2023-05-15T07:33:44.267Z,1.10
2023-05-15T07:36:12.531Z,7.40
2023-05-15T07:38:41.139Z,3.25
2023-05-15T07:41:09.707Z,3.72
2023-05-15T07:43:38.036Z,4.10
2023-05-15T07:46:06.482Z,6.30
2023-05-15T07:48:34.698Z,9.18
2023-05-15T07:51:03.374Z,3.02
2023-05-15T07:53:33.013Z,4.42
2023-05-15T07:56:01.559Z,3.58
2023-05-15T07:58:30.156Z,5.10
2023-05-15T08:00:58.324Z,9.03
2023-05-15T08:03:26.569Z,4.55
2023-05-15T08:05:54.816Z,7.17
2023-05-15T08:08:23.508Z,2.67
2023-05-15T08:10:52.065Z,10.30
2023-05-15T08:13:20.301Z,4.42
2023-05-15T08:15:48.623Z,2.77
2023-05-15T08:18:16.926Z,2.55
2023-05-15T08:20:45.180Z,13.80
2023-05-15T08:23:13.503Z,6.72
2023-05-15T08:25:41.714Z,6.65
2023-05-15T08:28:11.173Z,11.05
2023-05-15T08:30:39.759Z,5.35
2023-05-15T08:33:10.025Z,5.03
2023-05-15T08:35:38.304Z,16.25
2023-05-15T08:38:06.598Z,8.58
2023-05-15T08:40:39.743Z,6.75
2023-05-15T08:43:07.457Z,7.35
2023-05-15T08:45:35.813Z,4.55
2023-05-15T08:48:06.040Z,2.15
2023-05-15T08:50:34.838Z,3.67
2023-05-15T08:53:03.854Z,4.75
2023-05-15T08:55:32.806Z,7.90
2023-05-15T08:58:01.246Z,13.40
2023-05-15T09:00:29.958Z,8.63
2023-05-15T09:03:00.292Z,4.90
2023-05-15T09:05:29.426Z,7.67
2023-05-15T09:07:59.620Z,12.28
2023-05-15T09:10:28.089Z,3.83
2023-05-15T09:12:57.304Z,12.50
2023-05-15T09:15:25.836Z,8.35
2023-05-15T09:17:57.864Z,10.75
2023-05-15T09:20:30.514Z,4.15
2023-05-15T09:22:59.774Z,6.65
2023-05-15T09:25:41.416Z,4.70
2023-05-15T09:28:10.576Z,3.75
2023-05-15T09:30:39.721Z,2.45
2023-05-15T09:33:08.431Z,5.12
2023-05-15T09:35:37.777Z,0.72
2023-05-15T09:38:15.300Z,1.98
2023-05-15T09:40:43.556Z,7.85
2023-05-15T09:43:12.484Z,6.03
2023-05-15T09:45:41.481Z,3.22
2023-05-15T09:48:11.905Z,5.78
2023-05-15T09:50:41.960Z,12.37
2023-05-15T09:53:12.814Z,2.40
2023-05-15T09:55:43.623Z,4.85
2023-05-15T09:58:13.530Z,6.28
2023-05-15T10:00:47.948Z,4.25
2023-05-15T10:03:13.150Z,1.40
2023-05-15T10:05:43.733Z,3.52
2023-05-15T10:08:11.977Z,5.37
2023-05-15T10:10:40.323Z,3.33
2023-05-15T10:13:10.193Z,5.92
2023-05-15T10:15:39.597Z,4.22
2023-05-15T10:18:09.193Z,3.27
2023-05-15T10:20:37.752Z,5.72
2023-05-15T10:23:06.574Z,4.28
2023-05-15T10:25:36.446Z,2.45
2023-05-15T10:28:05.397Z,3.22
2023-05-15T10:30:34.153Z,4.10
2023-05-15T10:33:02.970Z,2.72
2023-05-15T10:35:31.442Z,5.15
2023-05-15T10:38:00.266Z,2.37
2023-05-15T10:40:29.355Z,4.70
2023-05-15T10:42:59.545Z,1.17
2023-05-15T10:45:28.797Z,5.25
2023-05-15T10:47:58.035Z,4.28
2023-05-15T10:50:27.871Z,3.20
2023-05-15T10:52:56.340Z,0.25
2023-05-15T10:55:25.121Z,2.90
2023-05-15T10:57:54.769Z,4.42
2023-05-15T11:00:24.677Z,1.47
2023-05-15T11:02:55.167Z,3.92
2023-05-15T11:05:24.570Z,2.75
2023-05-15T11:08:11.752Z,2.60
2023-05-15T11:10:40.079Z,2.08
2023-05-15T11:13:08.296Z,0.82
2023-05-15T11:15:43.083Z,3.72
2023-05-15T11:18:11.852Z,1.90
2023-05-15T11:20:41.459Z,4.17
2023-05-15T11:23:11.812Z,0.50
2023-05-15T11:25:40.292Z,1.47
2023-05-15T11:28:10.082Z,2.95
2023-05-15T11:30:39.534Z,3.42
2023-05-15T11:33:11.460Z,4.50
2023-05-15T11:35:42.861Z,2.52
2023-05-15T11:38:12.956Z,2.65
2023-05-15T11:40:46.982Z,0.20
2023-05-15T11:43:19.174Z,1.98
2023-05-15T11:45:49.438Z,2.77
2023-05-15T11:48:18.103Z,2.22
2023-05-15T11:50:46.766Z,0.98
2023-05-15T11:53:15.180Z,3.75
2023-05-15T11:55:44.590Z,3.50
2023-05-15T11:58:14.788Z,1.57
2023-05-15T12:00:44.275Z,1.92
2023-05-15T12:03:14.481Z,2.08
2023-05-15T12:05:57.566Z,2.02
2023-05-15T12:08:15.749Z,2.17
2023-05-15T12:10:44.672Z,0.95
2023-05-15T12:13:13.391Z,0.40
2023-05-15T12:15:43.240Z,0.98
2023-05-15T12:18:14.394Z,0.30
2023-05-15T12:20:51.252Z,2.47
2023-05-15T12:23:22.221Z,1.55
2023-05-15T12:25:51.841Z,0.47
2023-05-15T12:28:20.502Z,0.95
2023-05-15T12:30:50.477Z,1.60
2023-05-15T12:33:19.656Z,1.57
2023-05-15T12:35:53.504Z,0.20
2023-05-15T12:38:27.502Z,1.67
2023-05-15T12:40:57.277Z,3.40
2023-05-15T12:43:26.336Z,2.50
2023-05-15T12:45:55.809Z,1.62
2023-05-15T12:48:24.736Z,1.25
2023-05-15T12:50:53.909Z,1.02
2023-05-15T12:53:22.555Z,2.77
2023-05-15T12:55:53.913Z,0.80
2023-05-15T12:58:22.869Z,2.37
2023-05-15T13:00:53.535Z,1.70
2023-05-15T13:03:25.560Z,1.67
2023-05-15T13:05:55.986Z,0.80
2023-05-15T13:08:24.879Z,1.92
2023-05-15T13:11:00.488Z,0.93
2023-05-15T13:13:44.814Z,0.40
2023-05-15T13:16:25.626Z,1.45
2023-05-15T13:18:56.442Z,2.70
2023-05-15T13:21:27.973Z,0.88
2023-05-15T13:23:57.216Z,1.87
2023-05-15T13:26:26.218Z,1.37
2023-05-15T13:28:55.068Z,0.90
2023-05-15T13:31:26.206Z,0.70
2023-05-15T13:33:54.422Z,2.30
2023-05-15T13:36:22.677Z,0.57
2023-05-15T13:38:50.942Z,2.15
2023-05-15T13:41:19.308Z,0.70
2023-05-15T13:43:49.065Z,1.82
2023-05-15T13:46:17.643Z,0.72
2023-05-15T13:48:46.333Z,1.00
2023-05-15T13:51:14.606Z,1.67
2023-05-15T13:53:43.257Z,2.00
2023-05-15T13:56:11.901Z,2.40
2023-05-15T13:58:41.081Z,2.20
2023-05-15T14:01:09.422Z,1.45
2023-05-15T14:03:37.837Z,1.50
2023-05-15T14:06:06.340Z,0.33
2023-05-15T14:08:34.620Z,0.75
2023-05-15T14:11:04.875Z,1.05
2023-05-15T14:13:34.527Z,0.98
2023-05-15T14:16:04.638Z,0.50
2023-05-15T14:18:33.387Z,0.60
2023-05-15T14:21:02.060Z,1.12
2023-05-15T14:23:30.259Z,2.08
2023-05-15T14:25:58.869Z,1.02
2023-05-15T14:28:27.183Z,0.88
2023-05-15T14:30:55.534Z,0.33
2023-05-15T14:33:23.784Z,0.55
2023-05-15T14:35:52.033Z,1.27
2023-05-15T14:38:21.876Z,0.90
2023-05-15T14:40:50.237Z,0.95
2023-05-15T14:43:18.482Z,0.03
2023-05-15T14:45:46.667Z,1.40
2023-05-15T14:48:15.432Z,1.37
2023-05-15T14:50:44.789Z,0.88
2023-05-15T14:53:13.351Z,1.02
2023-05-15T14:55:42.006Z,0.40
2023-05-15T14:58:11.207Z,0.85
2023-05-15T15:00:39.424Z,0.60
2023-05-15T15:03:08.434Z,0.85
2023-05-15T15:05:37.168Z,0.55
2023-05-15T15:08:06.868Z,1.15
2023-05-15T15:10:36.513Z,1.17
2023-05-15T15:13:05.673Z,0.37
2023-05-15T15:15:35.172Z,1.57
2023-05-15T15:18:03.658Z,0.90
2023-05-15T15:20:32.028Z,0.10
2023-05-15T15:23:01.158Z,0.72
2023-05-15T15:25:31.479Z,1.22
2023-05-15T15:27:59.680Z,1.35
2023-05-15T15:30:28.061Z,1.05
2023-05-15T15:32:56.725Z,2.27
2023-05-15T15:35:25.038Z,1.52
2023-05-15T15:37:53.761Z,1.22
2023-05-15T15:40:24.198Z,1.52
2023-05-15T15:42:53.978Z,1.32
2023-05-15T15:45:22.233Z,1.42
2023-05-15T15:47:50.895Z,0.70
2023-05-15T15:50:19.103Z,1.47
2023-05-15T15:52:47.352Z,1.32
2023-05-15T15:55:16.345Z,1.67
2023-05-15T15:57:44.606Z,0.88
2023-05-15T16:00:13.577Z,0.30
2023-05-15T16:02:42.241Z,0.65
2023-05-15T16:05:10.888Z,0.45
2023-05-15T16:07:39.502Z,0.90
2023-05-15T16:10:12.321Z,1.80
2023-05-15T16:12:40.474Z,1.20
2023-05-15T16:15:21.791Z,0.50
2023-05-15T16:17:39.137Z,0.57
2023-05-15T16:20:07.849Z,1.47
2023-05-15T16:22:36.597Z,0.00
2023-05-15T16:25:04.999Z,0.33
2023-05-15T16:27:33.487Z,0.47
2023-05-15T16:30:02.285Z,0.72
2023-05-15T16:32:30.458Z,1.35
2023-05-15T16:34:58.786Z,1.62
2023-05-15T16:37:27.031Z,0.85
2023-05-15T16:39:55.319Z,1.02
2023-05-15T16:42:23.833Z,1.17
2023-05-15T16:44:53.133Z,2.22
2023-05-15T16:47:21.842Z,0.55
2023-05-15T16:49:50.648Z,3.40
2023-05-15T16:52:19.336Z,1.47
2023-05-15T16:54:48.783Z,1.77
2023-05-15T16:57:17.327Z,0.47
2023-05-15T16:59:45.887Z,0.00
2023-05-15T17:02:14.397Z,0.10
2023-05-15T17:04:42.979Z,1.72
2023-05-15T17:07:11.543Z,1.72
2023-05-15T17:09:41.671Z,0.42
2023-05-15T17:12:11.338Z,0.23
2023-05-15T17:14:39.541Z,0.40
2023-05-15T17:17:08.043Z,1.42
2023-05-15T17:19:38.616Z,0.55
2023-05-15T17:22:08.377Z,0.28
2023-05-15T17:24:50.873Z,2.47
2023-05-15T17:27:09.870Z,0.00
2023-05-15T17:29:38.403Z,0.45
2023-05-15T17:32:07.119Z,0.88
2023-05-15T17:34:35.921Z,0.50
2023-05-15T17:37:04.210Z,1.15
2023-05-15T17:39:32.937Z,0.98
2023-05-15T17:42:03.452Z,0.65
2023-05-15T17:44:31.793Z,1.95
2023-05-15T17:47:00.497Z,1.15
2023-05-15T17:49:29.089Z,1.70
2023-05-15T17:51:57.410Z,0.70
2023-05-15T17:54:25.952Z,2.12
2023-05-15T17:56:54.535Z,0.35
2023-05-15T17:59:22.778Z,2.12
2023-05-15T18:01:51.442Z,1.57
2023-05-15T18:04:19.778Z,0.65
2023-05-15T18:06:48.182Z,0.05
2023-05-15T18:09:16.757Z,1.37
2023-05-15T18:11:45.369Z,1.85
2023-05-15T18:14:13.982Z,2.20
2023-05-15T18:16:42.390Z,0.70
2023-05-15T18:19:11.205Z,2.55
2023-05-15T18:21:39.853Z,1.98
2023-05-15T18:24:09.327Z,0.40
2023-05-15T18:26:38.437Z,0.10
2023-05-15T18:29:07.068Z,2.00
2023-05-15T18:31:35.699Z,1.53
2023-05-15T18:34:04.014Z,0.20
2023-05-15T18:36:32.657Z,1.50
2023-05-15T18:39:02.728Z,2.07
2023-05-15T18:41:31.127Z,1.40
2023-05-15T18:43:59.355Z,0.53
2023-05-15T18:46:28.022Z,0.55
2023-05-15T18:48:56.400Z,0.40
2023-05-15T18:51:25.036Z,1.67
2023-05-15T18:53:53.618Z,2.70
2023-05-15T18:56:22.153Z,0.63
2023-05-15T18:58:51.224Z,1.30
2023-05-15T19:01:19.836Z,4.03
2023-05-15T19:03:48.216Z,2.90
2023-05-15T19:06:18.117Z,1.10
2023-05-15T19:08:47.392Z,0.60
2023-05-15T19:11:15.770Z,2.17
2023-05-15T19:13:44.628Z,1.37
2023-05-15T19:16:13.312Z,0.63
2023-05-15T19:18:41.747Z,1.90
2023-05-15T19:21:10.393Z,0.87
2023-05-15T19:23:38.972Z,1.83
2023-05-15T19:26:07.667Z,2.93
2023-05-15T19:28:36.256Z,0.47
2023-05-15T19:31:04.567Z,2.77
2023-05-15T19:33:32.803Z,0.53
2023-05-15T19:36:01.272Z,1.43
2023-05-15T19:38:30.096Z,2.07
2023-05-15T19:40:58.723Z,2.47
2023-05-15T19:43:27.719Z,1.83
2023-05-15T19:45:56.365Z,0.80
2023-05-15T19:48:24.962Z,1.03
2023-05-15T19:50:53.519Z,0.20
2023-05-15T19:53:21.861Z,0.00
2023-05-15T19:55:50.241Z,1.10
2023-05-15T19:58:19.619Z,0.87
2023-05-15T20:00:49.712Z,0.60
2023-05-15T20:03:18.348Z,0.33
2023-05-15T20:05:46.537Z,0.00
2023-05-15T20:08:17.213Z,2.40
2023-05-15T20:10:46.998Z,0.77
2023-05-15T20:13:15.193Z,0.00
2023-05-15T20:15:43.369Z,0.63
2023-05-15T20:18:12.016Z,0.97
2023-05-15T20:20:40.412Z,0.63
2023-05-15T20:23:08.995Z,1.60
2023-05-15T20:25:37.169Z,0.40
2023-05-15T20:28:05.475Z,1.17
2023-05-15T20:30:33.640Z,0.00
2023-05-15T20:33:02.043Z,2.10
2023-05-15T20:35:30.934Z,0.30
2023-05-15T20:37:59.506Z,0.82
2023-05-15T20:40:28.231Z,0.10
2023-05-15T20:42:57.198Z,0.00
2023-05-15T20:45:26.928Z,0.00
2023-05-15T20:47:55.205Z,1.40
2023-05-15T20:50:23.550Z,0.10
2023-05-15T20:52:51.796Z,0.30
2023-05-15T20:55:21.320Z,0.20
2023-05-15T20:57:50.875Z,1.43
2023-05-15T21:00:19.569Z,1.40
2023-05-15T21:02:47.889Z,1.75
2023-05-15T21:05:16.272Z,1.70
2023-05-15T21:07:45.609Z,0.00
2023-05-15T21:10:13.942Z,0.00
2023-05-15T21:12:42.648Z,0.20
2023-05-15T21:15:11.111Z,0.10
2023-05-15T21:17:44.421Z,0.60
2023-05-15T21:20:13.467Z,0.10
2023-05-15T21:22:41.788Z,2.57
2023-05-15T21:25:11.011Z,2.03
2023-05-15T21:27:39.544Z,1.00
2023-05-15T21:30:08.157Z,0.20
2023-05-15T21:32:36.297Z,0.47
2023-05-15T21:35:04.554Z,1.37
2023-05-15T21:37:33.095Z,2.73
2023-05-15T21:40:01.606Z,3.00
2023-05-15T21:42:31.818Z,1.20
2023-05-15T21:45:00.899Z,0.50
2023-05-15T21:47:29.563Z,1.80
2023-05-15T21:49:57.790Z,0.20
2023-05-15T21:52:26.109Z,4.43
2023-05-15T21:54:54.331Z,5.37
2023-05-15T21:57:22.861Z,1.20
2023-05-15T21:59:51.378Z,0.33
2023-05-15T22:02:19.610Z,1.97
2023-05-15T22:04:48.174Z,2.50
2023-05-15T22:07:16.587Z,0.63
2023-05-15T22:09:44.845Z,1.17
2023-05-15T22:12:13.064Z,0.00
2023-05-15T22:14:54.522Z,0.80
2023-05-15T22:17:12.638Z,1.80
2023-05-15T22:19:45.895Z,0.40
2023-05-15T22:22:14.130Z,0.40
2023-05-15T22:24:43.908Z,1.30
2023-05-15T22:27:12.619Z,1.17
2023-05-15T22:29:40.942Z,1.90
2023-05-15T22:32:09.260Z,2.70
2023-05-15T22:34:37.990Z,0.10
2023-05-15T22:37:06.833Z,0.60
2023-05-15T22:39:35.117Z,2.90
2023-05-15T22:42:03.660Z,3.40
2023-05-15T22:44:32.158Z,0.20
2023-05-15T22:47:00.399Z,1.80
2023-05-15T22:49:28.637Z,0.20
2023-05-15T22:51:57.848Z,0.60
2023-05-15T22:54:26.163Z,2.13
2023-05-15T22:56:54.865Z,1.23
2023-05-15T22:59:23.571Z,1.20
2023-05-15T23:01:51.899Z,2.80
2023-05-15T23:04:20.685Z,1.90
2023-05-15T23:06:49.006Z,0.60
2023-05-15T23:09:17.240Z,0.93
2023-05-15T23:11:45.928Z,0.00
2023-05-15T23:14:15.942Z,4.97
2023-05-15T23:16:44.719Z,2.10
2023-05-15T23:19:13.351Z,5.30
2023-05-15T23:21:41.874Z,1.37
2023-05-15T23:24:10.169Z,3.07
2023-05-15T23:26:38.717Z,2.70
2023-05-15T23:29:06.880Z,2.47
2023-05-15T23:31:35.241Z,4.30
2023-05-15T23:34:03.428Z,3.70
2023-05-15T23:36:31.657Z,2.47
2023-05-15T23:38:59.940Z,1.57
2023-05-15T23:41:28.545Z,2.97
2023-05-15T23:43:57.176Z,3.00
2023-05-15T23:46:26.069Z,2.07
2023-05-15T23:48:54.308Z,3.97
2023-05-15T23:51:22.546Z,0.33
2023-05-15T23:53:51.134Z,2.13
2023-05-15T23:56:19.309Z,2.07
2023-05-15T23:58:47.825Z,1.80
